Time;durP1;ratioP1;P1;durP2;ratioP2;P2;SDS_P1;SDS_P2;PMS_P1;PMS_P2;Temp;Humidity;BMP_temperature;BMP_pressure;BME280_temperature;BME280_humidity;BME280_pressure;Samples;Min_cycle;Max_cycle;Signal;HPM_P1;HPM_P2
2022/07/18 00:01:44;;;;;;;;;;;;;;;18.39;38.44;97215.19;4961802;28;19962;-73
2022/07/18 00:04:10;;;;;;;;;;;;;;;18.36;38.48;97206.94;4961835;29;19996;-73
2022/07/18 00:06:36;;;;;;;;;;;;;;;18.32;38.38;97206.63;4961738;28;20003;-73
2022/07/18 00:09:03;;;;;;;;;;;;;;;18.29;38.63;97211.63;4961569;29;20439;-72
2022/07/18 00:11:29;;;;;;;;;;;;;;;18.24;38.77;97212.38;4962062;28;19979;-72
2022/07/18 00:13:55;;;;;;;;;;;;;;;18.19;38.75;97213.13;4961623;29;19961;-73
2022/07/18 00:16:22;;;;;;;;;;;;;;;18.15;38.69;97212.00;4961512;28;19969;-73
2022/07/18 00:18:48;;;;;;;;;;;;;;;18.12;38.72;97217.81;4961684;29;19961;-74
2022/07/18 00:21:14;;;;;;;;;;;;;;;18.08;38.83;97219.38;4961480;28;19979;-73
2022/07/18 00:23:40;;;;;;;;;;;;;;;18.07;39.14;97222.25;4961187;28;19966;-73
2022/07/18 00:26:06;;;;;;;;;;;;;;;18.02;39.31;97221.16;4961658;28;20018;-72
2022/07/18 00:28:32;;;;;;;;;;;;;;;18.00;39.43;97220.59;4961542;29;19958;-74
2022/07/18 00:30:58;;;;;;;;;;;;;;;17.97;39.33;97223.72;4961304;29;20451;-72
2022/07/18 00:33:24;;;;;;;;;;;;;;;17.95;39.33;97223.16;4961293;29;19959;-72
2022/07/18 00:35:50;;;;;;;;;;;;;;;17.92;39.34;97222.88;4961835;29;20409;-73
2022/07/18 00:38:16;;;;;;;;;;;;;;;17.89;39.30;97218.88;4961340;29;19991;-73
2022/07/18 00:40:42;;;;;;;;;;;;;;;17.86;39.35;97219.34;4961325;28;19963;-73
2022/07/18 00:43:08;;;;;;;;;;;;;;;17.83;39.28;97219.84;4961582;29;20066;-73
2022/07/18 00:45:34;;;;;;;;;;;;;;;17.80;39.24;97214.97;4961395;29;20060;-72
2022/07/18 00:48:04;;;;;;;;;;;;;;;17.77;39.07;97215.47;4961230;29;20423;-73
2022/07/18 00:50:30;;;;;;;;;;;;;;;17.74;39.09;97215.97;4961800;28;19953;-73
2022/07/18 00:52:56;;;;;;;;;;;;;;;17.69;39.44;97213.25;4961156;28;20070;-73
2022/07/18 00:55:22;;;;;;;;;;;;;;;17.66;39.75;97214.53;4959214;28;19966;-73
2022/07/18 00:57:48;;;;;;;;;;;;;;;17.62;39.76;97214.22;4958498;29;20456;-73
2022/07/18 01:02:58;;;;;;;;;;;;;;;17.56;40.61;97217.06;4946177;29;19959;-73
2022/07/18 01:05:24;;;;;;;;;;;;;;;17.53;40.73;97220.16;4958002;29;19957;-73
2022/07/18 01:07:51;;;;;;;;;;;;;;;17.49;40.44;97211.09;4958080;28;19983;-73
2022/07/18 01:10:18;;;;;;;;;;;;;;;17.45;40.55;97216.09;4958303;29;20330;-73
2022/07/18 01:12:44;;;;;;;;;;;;;;;17.41;40.99;97217.63;4957842;29;19969;-72
2022/07/18 01:15:11;;;;;;;;;;;;;;;17.33;40.95;97212.72;4957860;29;19963;-73
2022/07/18 01:17:37;;;;;;;;;;;;;;;17.29;40.63;97216.91;4956604;29;19970;-73
2022/07/18 01:20:04;;;;;;;;;;;;;;;17.23;40.63;97213.38;4956315;29;19959;-72
2022/07/18 01:22:29;;;;;;;;;;;;;;;17.17;41.15;97215.13;4958395;29;19969;-72
2022/07/18 01:24:55;;;;;;;;;;;;;;;17.14;41.49;97212.97;4957520;29;19969;-73
2022/07/18 01:27:22;;;;;;;;;;;;;;;17.10;41.58;97211.03;4957786;29;20019;-72
2022/07/18 01:29:48;;;;;;;;;;;;;;;17.04;41.58;97212.81;4957512;29;19963;-73
2022/07/18 01:32:15;;;;;;;;;;;;;;;17.00;41.81;97209.81;4956754;29;20444;-73
2022/07/18 01:34:41;;;;;;;;;;;;;;;16.96;41.61;97208.69;4957601;29;19966;-73
2022/07/18 01:37:07;;;;;;;;;;;;;;;16.93;41.99;97211.03;4957723;29;20344;-72
2022/07/18 01:39:34;;;;;;;;;;;;;;;16.89;41.67;97216.00;4957568;29;19961;-73
2022/07/18 01:42:01;;;;;;;;;;;;;;;16.84;41.83;97211.44;4957661;29;19982;-73
2022/07/18 01:44:28;;;;;;;;;;;;;;;16.81;42.10;97216.38;4957530;29;19963;-73
2022/07/18 01:46:54;;;;;;;;;;;;;;;16.75;41.68;97212.00;4956887;28;19954;-73
2022/07/18 01:49:20;;;;;;;;;;;;;;;16.70;41.49;97211.94;4957164;29;19959;-73
2022/07/18 01:51:47;;;;;;;;;;;;;;;16.66;41.67;97213.44;4957171;29;20448;-73
2022/07/18 01:54:12;;;;;;;;;;;;;;;16.64;41.75;97216.31;4956398;28;19954;-73
2022/07/18 01:56:39;;;;;;;;;;;;;;;16.62;42.21;97218.41;4957429;29;19963;-73
2022/07/18 01:59:04;;;;;;;;;;;;;;;16.58;42.31;97215.44;4957003;29;19948;-73
2022/07/18 02:01:30;;;;;;;;;;;;;;;16.54;42.45;97221.44;4957170;29;20492;-73
2022/07/18 02:03:56;;;;;;;;;;;;;;;16.51;42.19;97211.34;4956944;29;20026;-73
2022/07/18 02:06:22;;;;;;;;;;;;;;;16.49;42.57;97216.84;4956410;28;19960;-73
2022/07/18 02:08:48;;;;;;;;;;;;;;;16.46;42.43;97216.53;4956962;29;19996;-72
2022/07/18 02:11:14;;;;;;;;;;;;;;;16.43;42.66;97217.81;4956790;29;19961;-72
2022/07/18 02:13:40;;;;;;;;;;;;;;;16.38;42.68;97210.56;4956614;28;19955;-73
2022/07/18 02:16:06;;;;;;;;;;;;;;;16.34;42.75;97214.72;4956890;29;20023;-73
2022/07/18 02:18:32;;;;;;;;;;;;;;;16.30;42.32;97207.50;4956897;29;19953;-72
2022/07/18 02:20:59;;;;;;;;;;;;;;;16.26;42.76;97212.44;4955482;29;20473;-72
2022/07/18 02:23:25;;;;;;;;;;;;;;;16.23;43.09;97216.38;4956687;29;19962;-73
2022/07/18 02:25:51;;;;;;;;;;;;;;;16.21;43.41;97222.91;4956523;29;19956;-73
2022/07/18 02:28:17;;;;;;;;;;;;;;;16.16;43.60;97220.19;4956644;29;20843;-72
2022/07/18 02:30:43;;;;;;;;;;;;;;;16.12;43.47;97221.69;4957134;29;19975;-72
2022/07/18 02:33:09;;;;;;;;;;;;;;;16.08;43.89;97221.34;4956668;29;20344;-73
2022/07/18 02:35:35;;;;;;;;;;;;;;;16.05;43.71;97226.31;4956526;29;19959;-72
2022/07/18 02:38:01;;;;;;;;;;;;;;;16.00;43.87;97224.34;4956453;29;20042;-72
2022/07/18 02:40:27;;;;;;;;;;;;;;;15.95;43.86;97222.41;4956343;28;20003;-72
2022/07/18 02:42:52;;;;;;;;;;;;;;;15.92;43.30;97222.88;4956367;29;19971;-72
2022/07/18 02:45:18;;;;;;;;;;;;;;;15.88;44.01;97220.94;4956188;29;19967;-72
2022/07/18 02:47:44;;;;;;;;;;;;;;;15.86;43.83;97220.38;4956076;28;20013;-73
2022/07/18 02:50:10;;;;;;;;;;;;;;;15.81;43.74;97221.03;4956466;29;20042;-72
2022/07/18 02:52:36;;;;;;;;;;;;;;;15.78;43.65;97226.81;4956057;29;20353;-72
2022/07/18 02:55:03;;;;;;;;;;;;;;;15.74;43.88;97218.53;4956051;29;19953;-73
2022/07/18 02:57:28;;;;;;;;;;;;;;;15.70;44.29;97224.47;4956447;29;19959;-72
2022/07/18 02:59:54;;;;;;;;;;;;;;;15.69;44.28;97217.59;4956057;28;19968;-72
2022/07/18 03:02:20;;;;;;;;;;;;;;;15.65;44.16;97219.91;4956253;29;19994;-73
2022/07/18 03:04:46;;;;;;;;;;;;;;;15.61;44.43;97224.03;4955927;29;19959;-73
2022/07/18 03:07:12;;;;;;;;;;;;;;;15.56;44.32;97223.91;4956080;29;20341;-75
2022/07/18 03:09:38;;;;;;;;;;;;;;;15.53;43.86;97224.38;4955548;29;19955;-73
2022/07/18 03:12:04;;;;;;;;;;;;;;;15.50;44.17;97230.13;4954962;29;19997;-73
2022/07/18 03:14:30;;;;;;;;;;;;;;;15.45;44.32;97228.16;4955876;29;19954;-74
2022/07/18 03:16:56;;;;;;;;;;;;;;;15.41;44.46;97224.38;4955749;29;20028;-73
2022/07/18 03:19:22;;;;;;;;;;;;;;;15.39;44.68;97234.38;4955118;28;19998;-73
2022/07/18 03:21:47;;;;;;;;;;;;;;;15.36;45.14;97226.91;4955815;29;20017;-73
2022/07/18 03:24:14;;;;;;;;;;;;;;;15.32;45.53;97223.91;4955787;29;20416;-73
2022/07/18 03:26:40;;;;;;;;;;;;;;;15.29;45.24;97226.22;4955224;28;19954;-73
2022/07/18 03:29:06;;;;;;;;;;;;;;;15.26;45.33;97227.47;4947202;29;19960;-73
2022/07/18 03:31:32;;;;;;;;;;;;;;;15.23;45.38;97233.22;4955444;29;20403;-73
2022/07/18 03:33:58;;;;;;;;;;;;;;;15.19;45.41;97230.22;4955883;29;19998;-73
2022/07/18 03:36:24;;;;;;;;;;;;;;;15.16;45.62;97228.03;4955615;29;19966;-73
2022/07/18 03:38:50;;;;;;;;;;;;;;;15.13;45.67;97232.97;4955370;29;20474;-73
2022/07/18 03:41:16;;;;;;;;;;;;;;;15.10;45.79;97231.59;4955445;29;20406;-73
2022/07/18 03:43:42;;;;;;;;;;;;;;;15.06;45.99;97235.72;4955393;29;19959;-72
2022/07/18 03:46:08;;;;;;;;;;;;;;;15.04;46.27;97239.63;4955521;29;19960;-73
2022/07/18 03:48:34;;;;;;;;;;;;;;;15.02;45.96;97234.56;4955694;29;20001;-73
2022/07/18 03:51:00;;;;;;;;;;;;;;;15.01;46.37;97238.22;4955363;29;19976;-73
2022/07/18 03:53:26;;;;;;;;;;;;;;;14.98;47.02;97242.13;4954524;28;19959;-73
2022/07/18 03:55:52;;;;;;;;;;;;;;;14.96;46.98;97227.53;4955202;29;20705;-73
2022/07/18 03:58:18;;;;;;;;;;;;;;;14.94;46.81;97224.31;4955410;29;19957;-72
2022/07/18 04:00:44;;;;;;;;;;;;;;;14.93;47.54;97233.25;4955195;29;19952;-73
2022/07/18 04:03:10;;;;;;;;;;;;;;;14.90;47.87;97233.72;4955476;29;20450;-73
2022/07/18 04:05:36;;;;;;;;;;;;;;;14.88;47.79;97230.50;4955257;29;19957;-72
2022/07/18 04:08:01;;;;;;;;;;;;;;;14.88;48.15;97233.13;4955397;29;19960;-73
2022/07/18 04:10:27;;;;;;;;;;;;;;;14.85;48.01;97233.59;4955101;29;20405;-73
2022/07/18 04:12:54;;;;;;;;;;;;;;;14.84;48.36;97231.97;4955201;29;19979;-72
2022/07/18 04:15:22;;;;;;;;;;;;;;;14.84;48.62;97226.69;4955198;29;19964;-73
2022/07/18 04:17:48;;;;;;;;;;;;;;;14.83;48.60;97228.53;4955191;29;19959;-73
2022/07/18 04:20:14;;;;;;;;;;;;;;;14.83;48.53;97225.91;4955219;29;19979;-72
2022/07/18 04:23:06;;;;;;;;;;;;;;;14.85;49.00;97228.31;4955043;29;19966;-73
2022/07/18 04:25:36;;;;;;;;;;;;;;;14.86;48.87;97229.91;4951931;29;20402;-73
2022/07/18 04:28:03;;;;;;;;;;;;;;;14.87;48.96;97229.69;4953734;29;19965;-73
2022/07/18 04:30:29;;;;;;;;;;;;;;;14.89;49.02;97222.34;4955610;28;19970;-73
2022/07/18 04:32:55;;;;;;;;;;;;;;;14.93;49.14;97236.72;4958718;29;20476;-73
2022/07/18 04:35:22;;;;;;;;;;;;;;;14.99;49.02;97227.06;4958680;29;19967;-73
2022/07/18 04:37:49;;;;;;;;;;;;;;;15.04;48.90;97229.06;4958538;29;19979;-73
2022/07/18 04:40:15;;;;;;;;;;;;;;;15.11;48.81;97224.47;4958581;28;20032;-73
2022/07/18 04:42:41;;;;;;;;;;;;;;;15.18;48.70;97223.34;4958469;29;19952;-73
2022/07/18 04:45:08;;;;;;;;;;;;;;;15.26;48.37;97227.47;4958605;29;20436;-73
2022/07/18 04:47:34;;;;;;;;;;;;;;;15.36;48.05;97224.25;4958364;29;20485;-73
2022/07/18 04:50:00;;;;;;;;;;;;;;;15.43;48.38;97228.41;4958027;29;19967;-73
2022/07/18 04:52:26;;;;;;;;;;;;;;;15.51;47.71;97219.31;4958588;29;19982;-72
2022/07/18 04:54:52;;;;;;;;;;;;;;;15.62;47.40;97217.69;4958309;29;20351;-73
2022/07/18 04:57:18;;;;;;;;;;;;;;;15.73;48.53;97232.00;4958256;29;19952;-73
2022/07/18 04:59:45;;;;;;;;;;;;;;;15.85;48.42;97232.78;4958240;29;20417;-73
2022/07/18 05:02:11;;;;;;;;;;;;;;;16.00;48.52;97246.34;4958092;29;20011;-73
2022/07/18 05:04:37;;;;;;;;;;;;;;;16.14;47.35;97231.00;4958254;29;20415;-73
2022/07/18 05:07:03;;;;;;;;;;;;;;;16.30;46.41;97233.97;4958252;29;19956;-72
2022/07/18 05:09:29;;;;;;;;;;;;;;;16.47;46.85;97231.38;4958207;29;19982;-73
2022/07/18 05:11:55;;;;;;;;;;;;;;;16.68;46.67;97233.34;4957821;29;20017;-73
2022/07/18 05:14:21;;;;;;;;;;;;;;;16.91;46.37;97223.72;4958197;29;19960;-73
2022/07/18 05:16:47;;;;;;;;;;;;;;;17.16;46.42;97229.44;4958081;29;19963;-72
2022/07/18 05:19:15;;;;;;;;;;;;;;;17.40;45.87;97216.00;4958019;29;20356;-73
2022/07/18 05:21:42;;;;;;;;;;;;;;;17.63;45.58;97213.16;4958040;29;19995;-73
2022/07/18 05:24:08;;;;;;;;;;;;;;;17.85;45.04;97210.59;4957729;29;20358;-73
2022/07/18 05:26:34;;;;;;;;;;;;;;;18.10;45.69;97209.31;4957875;29;20013;-73
2022/07/18 05:28:59;;;;;;;;;;;;;;;18.38;44.69;97197.66;4957852;29;20036;-72
2022/07/18 05:31:25;;;;;;;;;;;;;;;18.66;44.73;97206.44;4957524;29;20058;-73
2022/07/18 05:33:51;;;;;;;;;;;;;;;18.87;42.95;97194.19;4957968;29;19981;-72
2022/07/18 05:36:17;;;;;;;;;;;;;;;19.13;43.47;97192.56;4957438;29;19957;-73
2022/07/18 05:38:43;;;;;;;;;;;;;;;19.37;42.35;97192.97;4957590;29;20328;-73
2022/07/18 05:41:09;;;;;;;;;;;;;;;19.56;41.58;97190.69;4957069;28;20009;-73
2022/07/18 05:43:35;;;;;;;;;;;;;;;19.77;42.04;97193.50;4957495;29;19985;-73
2022/07/18 05:46:01;;;;;;;;;;;;;;;20.02;41.54;97195.50;4957239;29;20013;-73
2022/07/18 05:48:27;;;;;;;;;;;;;;;20.27;40.85;97197.44;4958010;28;19958;-73
2022/07/18 05:50:53;;;;;;;;;;;;;;;20.52;40.78;97199.38;4957662;29;19970;-73
2022/07/18 05:53:18;;;;;;;;;;;;;;;20.78;40.33;97196.78;4957214;29;20422;-73
2022/07/18 05:55:44;;;;;;;;;;;;;;;21.04;40.02;97189.59;4957376;29;20056;-73
2022/07/18 05:58:10;;;;;;;;;;;;;;;21.26;39.22;97192.00;4957272;29;20056;-73
2022/07/18 06:00:36;;;;;;;;;;;;;;;21.43;39.03;97189.88;4957134;29;19981;-73
2022/07/18 06:03:02;;;;;;;;;;;;;;;21.66;38.86;97183.13;4957117;29;19966;-73
2022/07/18 06:05:28;;;;;;;;;;;;;;;21.87;38.88;97183.88;4955959;29;20051;-72
2022/07/18 06:07:55;;;;;;;;;;;;;;;22.07;38.82;97182.22;4956946;29;20482;-73
2022/07/18 06:10:21;;;;;;;;;;;;;;;22.25;37.16;97184.28;4957026;29;20431;-73
2022/07/18 06:12:47;;;;;;;;;;;;;;;22.35;37.85;97191.47;4956848;29;19970;-73
2022/07/18 06:15:14;;;;;;;;;;;;;;;22.45;37.39;97183.38;4956938;29;19958;-73
2022/07/18 06:17:39;;;;;;;;;;;;;;;22.57;36.64;97183.03;4956804;29;19976;-73
2022/07/18 06:20:07;;;;;;;;;;;;;;;22.61;35.90;97178.72;4956599;29;20963;-73
2022/07/18 06:22:34;;;;;;;;;;;;;;;22.66;35.55;97185.94;4956693;29;19958;-73
2022/07/18 06:25:01;;;;;;;;;;;;;;;22.67;36.45;97182.97;4956582;28;19955;-73
2022/07/18 06:27:26;;;;;;;;;;;;;;;22.74;36.52;97184.53;4956881;29;20433;-73
2022/07/18 06:29:52;;;;;;;;;;;;;;;22.68;36.52;97178.44;4956728;29;20023;-73
2022/07/18 06:32:18;;;;;;;;;;;;;;;22.62;36.26;97177.66;4956255;29;20502;-73
2022/07/18 06:34:44;;;;;;;;;;;;;;;22.53;36.41;97178.53;4956651;29;19972;-73
2022/07/18 06:37:10;;;;;;;;;;;;;;;22.44;36.00;97170.28;4956492;29;20027;-73
2022/07/18 06:39:36;;;;;;;;;;;;;;;22.47;36.58;97177.78;4956418;29;19969;-73
2022/07/18 06:42:02;;;;;;;;;;;;;;;22.58;35.95;97183.84;4956336;29;19995;-73
2022/07/18 06:44:29;;;;;;;;;;;;;;;22.78;36.93;97177.56;4956199;29;19962;-73
2022/07/18 06:46:57;;;;;;;;;;;;;;;23.04;36.39;97187.03;4956829;29;19962;-73
2022/07/18 06:49:22;;;;;;;;;;;;;;;23.24;36.25;97179.88;4956430;29;19956;-73
2022/07/18 06:51:48;;;;;;;;;;;;;;;23.25;34.38;97168.13;4956088;29;20502;-72
2022/07/18 06:54:14;;;;;;;;;;;;;;;23.16;33.98;97170.63;4955440;28;19989;-72
2022/07/18 06:56:40;;;;;;;;;;;;;;;23.10;35.46;97169.84;4956330;29;19970;-73
2022/07/18 06:59:06;;;;;;;;;;;;;;;23.09;33.11;97170.13;4955076;28;20324;-73
2022/07/18 07:01:32;;;;;;;;;;;;;;;23.16;34.80;97175.97;4955571;29;19973;-73
2022/07/18 07:03:58;;;;;;;;;;;;;;;23.30;34.49;97176.09;4954966;29;20336;-73
2022/07/18 07:06:24;;;;;;;;;;;;;;;23.41;34.18;97174.13;4956039;29;19972;-73
2022/07/18 07:08:49;;;;;;;;;;;;;;;23.50;32.85;97172.44;4956026;29;19965;-73
2022/07/18 07:11:15;;;;;;;;;;;;;;;23.59;31.36;97169.94;4955966;29;19961;-73
2022/07/18 07:13:41;;;;;;;;;;;;;;;23.77;33.22;97190.66;4955882;29;20003;-72
2022/07/18 07:16:07;;;;;;;;;;;;;;;24.01;32.03;97182.59;4955731;29;19983;-73
2022/07/18 07:18:33;;;;;;;;;;;;;;;24.11;30.28;97170.97;4956127;29;19967;-73
2022/07/18 07:21:00;;;;;;;;;;;;;;;24.25;31.33;97181.75;4956014;29;19978;-73
2022/07/18 07:23:26;;;;;;;;;;;;;;;24.47;32.05;97175.84;4955727;29;19961;-73
2022/07/18 07:25:52;;;;;;;;;;;;;;;24.62;30.89;97169.50;4955609;29;19983;-73
2022/07/18 07:28:18;;;;;;;;;;;;;;;24.65;31.13;97171.59;4955969;29;20476;-73
2022/07/18 07:30:44;;;;;;;;;;;;;;;24.62;31.81;97175.66;4955587;29;20419;-73
2022/07/18 07:33:10;;;;;;;;;;;;;;;24.73;33.53;97180.88;4955395;29;19971;-73
2022/07/18 07:35:36;;;;;;;;;;;;;;;24.89;32.96;97183.03;4955825;29;20315;-73
2022/07/18 07:38:02;;;;;;;;;;;;;;;25.00;32.46;97177.50;4955604;29;19961;-74
2022/07/18 07:40:28;;;;;;;;;;;;;;;25.12;31.88;97178.63;4955671;29;19958;-74
2022/07/18 07:43:05;;;;;;;;;;;;;;;25.25;33.06;97184.34;4955397;29;19964;-73
2022/07/18 07:45:30;;;;;;;;;;;;;;;25.43;31.72;97170.06;4955493;29;20410;-73
2022/07/18 07:47:56;;;;;;;;;;;;;;;25.68;31.64;97168.81;4955391;29;19969;-73
2022/07/18 07:50:22;;;;;;;;;;;;;;;25.85;31.46;97172.78;4955532;29;19972;-73
2022/07/18 07:52:48;;;;;;;;;;;;;;;25.98;30.50;97161.25;4955574;29;19976;-73
2022/07/18 07:55:14;;;;;;;;;;;;;;;26.18;30.35;97168.09;4955265;29;19989;-72
2022/07/18 07:57:40;;;;;;;;;;;;;;;26.23;30.38;97173.38;4955850;29;20001;-73
2022/07/18 08:00:08;;;;;;;;;;;;;;;26.37;30.02;97157.19;4955292;29;19968;-72
2022/07/18 08:02:34;;;;;;;;;;;;;;;26.53;29.42;97155.75;4955403;29;19964;-73
2022/07/18 08:05:01;;;;;;;;;;;;;;;26.65;28.79;97155.25;4956417;28;19959;-74
2022/07/18 08:07:27;;;;;;;;;;;;;;;26.73;29.28;97156.41;4959473;29;20441;-73
2022/07/18 08:09:52;;;;;;;;;;;;;;;26.89;28.54;97149.56;4959282;29;19964;-73
2022/07/18 08:12:18;;;;;;;;;;;;;;;27.04;28.80;97145.69;4959137;28;19961;-73
2022/07/18 08:14:44;;;;;;;;;;;;;;;27.05;27.42;97146.53;4959325;29;20066;-73
2022/07/18 08:17:10;;;;;;;;;;;;;;;26.98;27.10;97149.63;4958930;29;19961;-73
2022/07/18 08:19:36;;;;;;;;;;;;;;;27.00;28.93;97152.81;4958967;29;19975;-73
2022/07/18 08:22:02;;;;;;;;;;;;;;;27.19;29.28;97154.50;4958858;29;20063;-73
2022/07/18 08:24:28;;;;;;;;;;;;;;;27.24;27.43;97138.25;4958938;29;20024;-73
2022/07/18 08:26:54;;;;;;;;;;;;;;;27.26;28.15;97139.53;4959066;29;20012;-73
2022/07/18 08:29:20;;;;;;;;;;;;;;;27.35;28.80;97144.97;4958788;28;19966;-73
2022/07/18 08:31:46;;;;;;;;;;;;;;;27.44;27.44;97135.00;4959313;29;20340;-73
2022/07/18 08:34:12;;;;;;;;;;;;;;;27.61;28.13;97138.88;4958546;29;20079;-73
2022/07/18 08:36:38;;;;;;;;;;;;;;;27.79;28.03;97143.22;4958793;29;20007;-73
2022/07/18 08:39:04;;;;;;;;;;;;;;;27.92;27.34;97144.25;4958829;29;20517;-73
2022/07/18 08:41:29;;;;;;;;;;;;;;;28.00;27.73;97140.00;4959036;29;19965;-75
2022/07/18 08:43:55;;;;;;;;;;;;;;;28.05;28.07;97137.91;4958548;29;20321;-73
2022/07/18 08:46:21;;;;;;;;;;;;;;;28.08;27.62;97142.69;4958660;29;19960;-73
2022/07/18 08:48:48;;;;;;;;;;;;;;;28.18;27.24;97148.88;4958658;29;19962;-73
2022/07/18 08:51:14;;;;;;;;;;;;;;;28.23;26.04;97140.66;4958375;29;19964;-73
2022/07/18 08:53:40;;;;;;;;;;;;;;;28.17;26.20;97150.81;4958466;29;19979;-73
2022/07/18 08:56:06;;;;;;;;;;;;;;;28.21;26.94;97142.88;4958378;29;19957;-74
2022/07/18 08:58:32;;;;;;;;;;;;;;;28.21;25.94;97132.09;4957468;29;20430;-73
2022/07/18 09:00:59;;;;;;;;;;;;;;;28.19;26.42;97137.00;4958267;29;19966;-73
2022/07/18 09:03:25;;;;;;;;;;;;;;;28.19;26.67;97137.00;4958190;29;19969;-73
2022/07/18 09:06:03;;;;;;;;;;;;;;;28.31;25.87;97137.19;4958282;28;19961;-73
2022/07/18 09:08:29;;;;;;;;;;;;;;;28.43;26.23;97139.22;4958223;29;19958;-73
2022/07/18 09:10:56;;;;;;;;;;;;;;;28.53;25.83;97133.56;4958176;29;20435;-73
2022/07/18 09:13:24;;;;;;;;;;;;;;;28.66;26.44;97137.19;4956734;29;19975;-73
2022/07/18 09:16:10;;;;;;;;;;;;;;;28.75;25.97;97138.00;4957875;28;19965;-73
2022/07/18 09:18:37;;;;;;;;;;;;;;;28.83;24.52;97144.50;4957811;29;19962;-73
2022/07/18 09:21:04;;;;;;;;;;;;;;;28.85;24.16;97143.06;4957722;29;19981;-73
2022/07/18 09:23:31;;;;;;;;;;;;;;;28.88;23.58;97144.34;4957563;29;19962;-74
2022/07/18 09:25:57;;;;;;;;;;;;;;;28.85;21.65;97140.38;4957587;29;20440;-76
2022/07/18 09:28:23;;;;;;;;;;;;;;;28.83;24.47;97148.00;4957585;29;19962;-74
2022/07/18 09:30:49;;;;;;;;;;;;;;;28.80;24.93;97142.44;4957487;29;19964;-74
2022/07/18 09:33:16;;;;;;;;;;;;;;;28.89;24.45;97135.91;4957598;29;19973;-74
2022/07/18 09:35:46;;;;;;;;;;;;;;;28.94;24.93;97141.16;4957585;29;19962;-74
2022/07/18 09:38:13;;;;;;;;;;;;;;;29.12;25.37;97147.31;4957699;29;20433;-74
2022/07/18 09:40:43;;;;;;;;;;;;;;;29.27;23.50;97129.00;4957596;29;19969;-75
2022/07/18 09:43:10;;;;;;;;;;;;;;;29.39;24.58;97137.25;4957437;29;19967;-74
2022/07/18 09:45:44;;;;;;;;;;;;;;;29.45;24.11;97132.47;4956272;29;19959;-74
2022/07/18 09:48:12;;;;;;;;;;;;;;;29.54;24.02;97130.50;4958196;29;20434;-75
2022/07/18 09:50:40;;;;;;;;;;;;;;;29.59;23.73;97127.63;4957190;29;19978;-74
2022/07/18 09:53:08;;;;;;;;;;;;;;;29.69;24.02;97121.03;4957284;29;20472;-74
2022/07/18 09:55:34;;;;;;;;;;;;;;;29.81;23.28;97121.19;4957108;29;19955;-74
2022/07/18 09:58:09;;;;;;;;;;;;;;;29.93;23.50;97112.38;4957169;29;19959;-75
2022/07/18 10:00:36;;;;;;;;;;;;;;;29.88;22.49;97115.25;4957339;29;19960;-75
2022/07/18 10:03:04;;;;;;;;;;;;;;;29.92;22.95;97113.47;4957169;29;20399;-75
2022/07/18 10:05:31;;;;;;;;;;;;;;;29.98;22.29;97117.56;4957136;28;19957;-75
2022/07/18 10:07:58;;;;;;;;;;;;;;;29.91;22.77;97109.97;4957115;29;19956;-75
2022/07/18 10:10:27;;;;;;;;;;;;;;;29.95;22.72;97110.13;4957080;29;19961;-75
2022/07/18 10:12:57;;;;;;;;;;;;;;;30.05;22.03;97115.16;4956832;29;19973;-75
2022/07/18 10:15:24;;;;;;;;;;;;;;;30.05;22.23;97106.22;4957349;29;19969;-75
2022/07/18 10:17:51;;;;;;;;;;;;;;;30.14;21.34;97109.69;4956970;29;19960;-75
2022/07/18 10:20:17;;;;;;;;;;;;;;;30.33;23.01;97120.06;4956693;29;20343;-75
2022/07/18 10:22:44;;;;;;;;;;;;;;;30.44;22.08;97115.84;4956906;29;19970;-75
2022/07/18 10:25:11;;;;;;;;;;;;;;;30.58;21.50;97112.09;4956548;28;19957;-75
2022/07/18 10:28:12;;;;;;;;;;;;;;;30.73;22.35;97108.75;4956444;28;19964;-75
2022/07/18 10:30:49;;;;;;;;;;;;;;;30.85;21.48;97111.50;4897387;29;20446;-75
2022/07/18 10:33:33;;;;;;;;;;;;;;;30.94;20.88;97108.72;4948408;28;19982;-73
2022/07/18 10:36:04;;;;;;;;;;;;;;;30.99;21.37;97105.78;4947246;29;19966;-74
2022/07/18 10:38:29;;;;;;;;;;;;;;;30.98;21.62;97109.66;4956451;29;19960;-75
2022/07/18 10:41:07;;;;;;;;;;;;;;;31.01;22.60;97114.38;4957217;29;20411;-75
2022/07/18 10:43:34;;;;;;;;;;;;;;;31.02;21.83;97104.34;4956345;29;19963;-75
2022/07/18 10:46:01;;;;;;;;;;;;;;;30.96;21.80;97111.91;4956234;29;19963;-75
2022/07/18 10:48:33;;;;;;;;;;;;;;;31.01;21.72;97108.19;4956394;29;19970;-75
2022/07/18 10:51:05;;;;;;;;;;;;;;;31.15;23.12;97120.28;4956250;29;20333;-75
2022/07/18 10:53:50;;;;;;;;;;;;;;;31.29;21.95;97105.63;4956027;29;20458;-75
2022/07/18 10:56:15;;;;;;;;;;;;;;;31.41;23.56;97097.50;4956253;29;20355;-75
2022/07/18 10:58:42;;;;;;;;;;;;;;;31.57;23.44;97105.00;4955958;29;19965;-76
2022/07/18 11:01:14;;;;;;;;;;;;;;;31.66;22.43;97094.81;4956032;29;19953;-75
2022/07/18 11:03:40;;;;;;;;;;;;;;;31.79;21.40;97092.91;4956776;28;19958;-75
2022/07/18 11:06:06;;;;;;;;;;;;;;;31.83;19.49;97089.16;4956181;29;20411;-76
2022/07/18 11:08:33;;;;;;;;;;;;;;;31.85;21.15;97091.53;4956117;29;20325;-75
2022/07/18 11:11:01;;;;;;;;;;;;;;;31.89;21.63;97097.88;4955983;29;19956;-75
2022/07/18 11:13:28;;;;;;;;;;;;;;;31.81;21.14;97091.41;4955667;29;20335;-75
2022/07/18 11:16:07;;;;;;;;;;;;;;;31.90;21.63;97088.59;4956016;29;19954;-75
2022/07/18 11:18:53;;;;;;;;;;;;;;;32.12;22.66;97085.41;4955679;28;20402;-76
2022/07/18 11:21:21;;;;;;;;;;;;;;;32.33;21.38;97079.03;4955242;29;20372;-75
2022/07/18 11:24:07;;;;;;;;;;;;;;;32.36;19.82;97075.63;4955854;29;19960;-76
2022/07/18 11:26:35;;;;;;;;;;;;;;;32.31;20.71;97075.84;4947353;29;19961;-76
2022/07/18 11:29:02;;;;;;;;;;;;;;;32.35;21.18;97074.81;4956254;29;19960;-75
2022/07/18 11:31:29;;;;;;;;;;;;;;;32.50;20.65;97075.22;4955743;29;19966;-75
2022/07/18 11:33:55;;;;;;;;;;;;;;;32.47;20.54;97071.28;4955394;29;19980;-76
2022/07/18 11:36:22;;;;;;;;;;;;;;;32.54;20.84;97068.00;4956292;29;19960;-76
2022/07/18 11:38:50;;;;;;;;;;;;;;;32.77;20.62;97065.50;4955677;28;20402;-75
2022/07/18 11:41:16;;;;;;;;;;;;;;;32.92;19.75;97055.78;4955177;29;19962;-75
2022/07/18 11:43:46;;;;;;;;;;;;;;;32.82;19.76;97043.50;4955949;29;19972;-75
2022/07/18 11:46:13;;;;;;;;;;;;;;;32.78;20.13;97049.97;4955508;29;19957;-76
2022/07/18 11:48:40;;;;;;;;;;;;;;;32.85;20.31;97048.25;4955608;29;20007;-75
2022/07/18 11:51:09;;;;;;;;;;;;;;;32.95;18.77;97038.81;4955857;29;19973;-75
2022/07/18 11:53:35;;;;;;;;;;;;;;;32.99;19.33;97033.44;4955716;29;19978;-75
2022/07/18 11:56:05;;;;;;;;;;;;;;;32.97;18.73;97028.38;4954427;29;20046;-74
2022/07/18 11:58:38;;;;;;;;;;;;;;;32.84;18.87;97033.06;4955462;29;19961;-74
2022/07/18 12:01:04;;;;;;;;;;;;;;;32.88;19.13;97035.88;4955432;29;19955;-74
2022/07/18 12:03:30;;;;;;;;;;;;;;;33.01;20.54;97034.69;4955499;29;19955;-74
2022/07/18 12:05:56;;;;;;;;;;;;;;;33.20;19.85;97033.19;4955420;29;19956;-75
2022/07/18 12:08:32;;;;;;;;;;;;;;;33.34;19.52;97025.38;4955207;29;19998;-76
2022/07/18 12:11:19;;;;;;;;;;;;;;;33.51;20.10;97024.22;4955531;29;19966;-76
2022/07/18 12:13:54;;;;;;;;;;;;;;;33.72;19.35;97026.66;4955120;29;19974;-76
2022/07/18 12:16:31;;;;;;;;;;;;;;;33.74;19.84;97022.44;4955304;29;19959;-77
2022/07/18 12:18:58;;;;;;;;;;;;;;;33.65;18.17;97019.13;4955306;29;19967;-76
2022/07/18 12:21:37;;;;;;;;;;;;;;;33.51;18.01;97019.56;4955038;29;19982;-77
2022/07/18 12:24:16;;;;;;;;;;;;;;;33.56;19.45;97022.03;4955135;29;19962;-77
2022/07/18 12:26:42;;;;;;;;;;;;;;;33.75;19.73;97026.75;4955305;29;19962;-77
2022/07/18 12:29:09;;;;;;;;;;;;;;;33.90;18.98;97022.38;4955019;29;20012;-77
2022/07/18 12:31:45;;;;;;;;;;;;;;;33.94;17.76;97017.03;4955321;29;20428;-77
2022/07/18 12:34:15;;;;;;;;;;;;;;;33.65;17.76;97013.69;4954981;29;19971;-77
2022/07/18 12:36:51;;;;;;;;;;;;;;;33.60;18.60;97021.31;4954948;29;20328;-77
2022/07/18 12:39:30;;;;;;;;;;;;;;;33.63;19.18;97020.63;4955572;29;20328;-77
2022/07/18 12:41:57;;;;;;;;;;;;;;;33.71;18.74;97015.00;4955041;29;19966;-76
2022/07/18 12:44:27;;;;;;;;;;;;;;;33.73;20.16;97012.72;4953850;29;19956;-76
2022/07/18 12:46:53;;;;;;;;;;;;;;;33.64;18.34;97003.97;4954819;29;19961;-77
2022/07/18 12:49:19;;;;;;;;;;;;;;;33.65;19.01;97005.53;4954883;29;19956;-77
2022/07/18 12:51:45;;;;;;;;;;;;;;;33.71;19.28;97000.63;4955894;28;19965;-77